createdAt,value
2022-10-18T00:02:02.388Z,14.90
2022-10-18T00:04:51.805Z,14.90
2022-10-18T00:07:39.400Z,14.90
2022-10-18T00:10:27.019Z,15.30
2022-10-18T00:13:15.183Z,14.90
2022-10-18T00:16:03.617Z,15.00
2022-10-18T00:18:51.687Z,15.00
2022-10-18T00:21:40.653Z,15.00
2022-10-18T00:24:28.773Z,14.90
2022-10-18T00:27:19.126Z,14.90
2022-10-18T00:30:07.303Z,14.90
2022-10-18T00:32:55.023Z,14.80
2022-10-18T00:35:42.938Z,14.90
2022-10-18T00:38:31.727Z,14.90
2022-10-18T00:41:20.986Z,14.90
2022-10-18T00:44:28.542Z,14.90
2022-10-18T00:47:18.297Z,14.90
2022-10-18T00:50:06.931Z,14.90
2022-10-18T00:52:58.407Z,14.70
2022-10-18T00:55:47.437Z,14.90
2022-10-18T00:58:35.678Z,15.10
2022-10-18T01:01:27.493Z,14.80
2022-10-18T01:04:16.531Z,14.90
2022-10-18T01:07:08.133Z,14.90
2022-10-18T01:10:00.005Z,14.30
2022-10-18T01:12:53.926Z,14.90
2022-10-18T01:15:45.187Z,15.50
2022-10-18T01:18:36.360Z,14.90
2022-10-18T01:21:32.056Z,13.90
2022-10-18T01:24:30.678Z,14.90
2022-10-18T01:27:36.467Z,14.90
2022-10-18T01:30:42.698Z,14.90
2022-10-18T01:33:39.192Z,14.90
2022-10-18T01:36:28.643Z,14.90
2022-10-18T01:39:18.050Z,14.90
2022-10-18T01:42:07.518Z,14.90
2022-10-18T01:44:55.191Z,14.90
2022-10-18T01:47:43.978Z,12.70
2022-10-18T01:50:34.287Z,14.90
2022-10-18T01:53:26.505Z,14.90
2022-10-18T01:56:19.616Z,14.90
2022-10-18T01:59:13.732Z,14.80
2022-10-18T02:02:04.481Z,15.60
2022-10-18T02:04:55.185Z,14.80
2022-10-18T02:07:55.352Z,14.80
2022-10-18T02:10:55.914Z,14.80
2022-10-18T02:13:45.616Z,14.90
2022-10-18T02:16:37.193Z,14.90
2022-10-18T02:19:27.467Z,14.90
2022-10-18T02:22:15.603Z,14.90
2022-10-18T02:25:06.286Z,14.80
2022-10-18T02:27:59.789Z,14.80
2022-10-18T02:30:54.831Z,14.80
2022-10-18T02:33:46.671Z,14.80
2022-10-18T02:36:36.108Z,14.70
2022-10-18T02:39:24.412Z,14.80
2022-10-18T02:42:15.117Z,15.10
2022-10-18T02:45:02.773Z,14.90
2022-10-18T02:47:50.648Z,14.70
2022-10-18T02:50:38.126Z,14.70
2022-10-18T02:53:25.444Z,14.70
2022-10-18T02:56:12.934Z,14.70
2022-10-18T02:59:03.762Z,14.70
2022-10-18T03:01:52.103Z,14.80
2022-10-18T03:04:40.034Z,14.70
2022-10-18T03:07:27.394Z,14.80
2022-10-18T03:10:14.755Z,14.70
2022-10-18T03:13:02.624Z,14.80
2022-10-18T03:15:52.637Z,14.60
2022-10-18T03:18:40.266Z,15.10
2022-10-18T03:21:28.022Z,14.70
2022-10-18T03:24:15.381Z,14.70
2022-10-18T03:27:04.583Z,14.70
2022-10-18T03:29:52.347Z,14.80
2022-10-18T03:32:41.748Z,14.70
2022-10-18T03:35:29.253Z,14.80
2022-10-18T03:38:17.535Z,14.70
2022-10-18T03:41:05.374Z,14.80
2022-10-18T03:43:53.105Z,14.80
2022-10-18T03:46:41.298Z,14.80
2022-10-18T03:49:30.032Z,14.80
2022-10-18T03:52:17.262Z,14.80
2022-10-18T03:55:05.573Z,14.80
2022-10-18T03:57:53.021Z,14.70
2022-10-18T04:00:40.312Z,14.80
2022-10-18T04:03:28.201Z,14.90
2022-10-18T04:06:17.332Z,14.90
2022-10-18T04:09:07.873Z,14.80
2022-10-18T04:11:58.176Z,14.80
2022-10-18T04:14:46.765Z,14.80
2022-10-18T04:17:34.996Z,14.80
2022-10-18T04:20:22.643Z,14.80
2022-10-18T04:23:12.088Z,14.80
2022-10-18T04:25:59.688Z,14.80
2022-10-18T04:28:47.115Z,14.80
2022-10-18T04:31:34.232Z,14.80
2022-10-18T04:34:21.889Z,14.80
2022-10-18T04:37:09.779Z,14.80
2022-10-18T04:39:59.315Z,14.70
2022-10-18T04:42:46.440Z,14.80
2022-10-18T04:45:34.880Z,14.80
2022-10-18T04:48:23.130Z,14.80
2022-10-18T04:51:14.244Z,14.80
2022-10-18T04:54:01.573Z,14.80
2022-10-18T04:56:50.449Z,14.80
2022-10-18T04:59:38.460Z,14.90
2022-10-18T05:02:26.026Z,14.80
2022-10-18T05:05:14.375Z,14.80
2022-10-18T05:08:02.272Z,14.80
2022-10-18T05:10:50.426Z,14.80
2022-10-18T05:13:40.072Z,14.80
2022-10-18T05:16:28.535Z,14.80
2022-10-18T05:19:16.366Z,14.80
2022-10-18T05:22:04.398Z,14.80
2022-10-18T05:24:52.361Z,14.80
2022-10-18T05:27:40.935Z,14.80
2022-10-18T05:30:30.603Z,14.80
2022-10-18T05:33:18.564Z,13.00
2022-10-18T05:36:06.273Z,14.70
2022-10-18T05:38:54.192Z,14.70
2022-10-18T05:41:42.231Z,14.70
2022-10-18T05:44:29.934Z,14.70
2022-10-18T05:47:19.115Z,14.70
2022-10-18T05:50:07.658Z,14.70
2022-10-18T05:53:06.752Z,14.60
2022-10-18T05:56:01.442Z,14.60
2022-10-18T05:58:51.418Z,15.10
2022-10-18T06:01:39.161Z,14.60
2022-10-18T06:04:28.864Z,14.50
2022-10-18T06:07:18.669Z,14.50
2022-10-18T06:10:07.584Z,14.50
2022-10-18T06:12:55.712Z,14.50
2022-10-18T06:15:43.160Z,14.40
2022-10-18T06:18:30.997Z,14.30
2022-10-18T06:21:20.972Z,14.40
2022-10-18T06:24:08.484Z,14.40
2022-10-18T06:26:55.941Z,14.30
2022-10-18T06:29:46.281Z,15.00
2022-10-18T06:32:33.726Z,14.30
2022-10-18T06:35:21.183Z,14.30
2022-10-18T06:38:10.808Z,14.30
2022-10-18T06:40:59.448Z,14.30
2022-10-18T06:43:49.308Z,14.30
2022-10-18T06:46:36.759Z,14.30
2022-10-18T06:49:24.166Z,14.40
2022-10-18T06:52:11.368Z,14.40
2022-10-18T06:55:00.186Z,14.40
2022-10-18T06:57:47.880Z,14.40
2022-10-18T07:00:35.319Z,14.50
2022-10-18T07:03:23.231Z,12.30
2022-10-18T07:06:11.841Z,14.50
2022-10-18T07:08:59.506Z,14.50
2022-10-18T07:11:48.452Z,14.50
2022-10-18T07:14:35.957Z,14.60
2022-10-18T07:17:23.831Z,14.60
2022-10-18T07:20:12.063Z,14.60
2022-10-18T07:23:00.479Z,14.60
2022-10-18T07:25:48.181Z,14.60
2022-10-18T07:28:37.068Z,15.20
2022-10-18T07:31:25.137Z,14.60
2022-10-18T07:34:13.475Z,14.70
2022-10-18T07:37:00.755Z,14.70
2022-10-18T07:39:48.522Z,14.50
2022-10-18T07:42:36.602Z,14.70
2022-10-18T07:45:25.490Z,14.70
2022-10-18T07:48:13.034Z,14.60
2022-10-18T07:51:01.148Z,14.60
2022-10-18T07:53:49.449Z,14.50
2022-10-18T07:56:36.764Z,14.50
2022-10-18T07:59:24.282Z,14.50
2022-10-18T08:02:13.102Z,14.40
2022-10-18T08:05:01.320Z,14.40
2022-10-18T08:07:48.936Z,14.40
2022-10-18T08:10:36.399Z,14.40
2022-10-18T08:13:24.107Z,14.50
2022-10-18T08:16:12.961Z,14.50
2022-10-18T08:19:04.448Z,14.50
2022-10-18T08:21:52.069Z,14.50
2022-10-18T08:24:39.644Z,14.50
2022-10-18T08:27:27.248Z,14.50
2022-10-18T08:30:16.628Z,14.50
2022-10-18T08:33:04.565Z,14.50
2022-10-18T08:35:57.742Z,14.50
2022-10-18T08:38:45.375Z,14.50
2022-10-18T08:41:51.118Z,13.20
2022-10-18T08:44:43.518Z,14.50
2022-10-18T08:47:36.940Z,14.50
2022-10-18T08:50:26.935Z,14.50
2022-10-18T08:53:19.328Z,14.70
2022-10-18T08:56:11.275Z,14.60
2022-10-18T08:58:58.551Z,14.70
2022-10-18T09:01:49.457Z,14.70
2022-10-18T09:04:40.939Z,14.80
2022-10-18T09:07:39.777Z,14.80
2022-10-18T09:10:34.844Z,14.90
2022-10-18T09:13:36.177Z,15.00
2022-10-18T09:16:29.504Z,15.20
2022-10-18T09:19:21.896Z,15.40
2022-10-18T09:22:10.853Z,15.50
2022-10-18T09:25:04.259Z,15.50
2022-10-18T09:27:54.545Z,15.60
2022-10-18T09:30:45.076Z,15.70
2022-10-18T09:33:53.297Z,15.60
2022-10-18T09:36:41.126Z,16.10
2022-10-18T09:39:31.527Z,15.60
2022-10-18T09:42:26.997Z,15.80
2022-10-18T09:45:23.719Z,15.80
2022-10-18T09:48:14.500Z,15.90
2022-10-18T09:51:04.083Z,15.80
2022-10-18T09:54:00.728Z,15.90
2022-10-18T09:56:50.372Z,16.00
2022-10-18T09:59:39.727Z,16.10
2022-10-18T10:02:28.920Z,16.10
2022-10-18T10:05:16.952Z,16.30
2022-10-18T10:08:05.172Z,16.40
2022-10-18T10:10:53.001Z,16.40
2022-10-18T10:13:40.980Z,16.40
2022-10-18T10:16:29.224Z,16.40
2022-10-18T10:19:21.303Z,16.40
2022-10-18T10:22:11.146Z,16.40
2022-10-18T10:24:58.901Z,16.40
2022-10-18T10:27:46.999Z,16.30
2022-10-18T10:30:35.724Z,16.30
2022-10-18T10:33:32.265Z,16.30
2022-10-18T10:36:23.067Z,16.30
2022-10-18T10:39:16.306Z,16.40
2022-10-18T10:42:04.990Z,16.40
2022-10-18T10:44:55.813Z,16.40
2022-10-18T10:47:43.360Z,16.40
2022-10-18T10:50:31.582Z,16.30
2022-10-18T10:53:32.205Z,16.40
2022-10-18T10:56:23.511Z,16.30
2022-10-18T10:59:15.730Z,15.10
2022-10-18T11:02:18.263Z,16.50
2022-10-18T11:05:19.928Z,16.50
2022-10-18T11:08:10.331Z,16.70
2022-10-18T11:11:09.082Z,16.70
2022-10-18T11:14:13.601Z,16.70
2022-10-18T11:17:12.213Z,16.80
2022-10-18T11:20:21.920Z,16.70
2022-10-18T11:23:12.868Z,17.70
2022-10-18T11:26:15.880Z,16.70
2022-10-18T11:29:08.775Z,15.60
2022-10-18T11:32:03.714Z,16.60
2022-10-18T11:34:59.194Z,16.50
2022-10-18T11:37:56.024Z,16.50
2022-10-18T11:40:50.164Z,16.40
2022-10-18T11:44:01.672Z,16.30
2022-10-18T11:46:58.592Z,16.30
2022-10-18T11:50:01.968Z,16.60
2022-10-18T11:52:57.635Z,16.80
2022-10-18T11:55:58.031Z,16.90
2022-10-18T11:58:59.019Z,17.00
2022-10-18T12:01:54.951Z,17.00
2022-10-18T12:04:58.526Z,17.00
2022-10-18T12:07:56.223Z,17.20
2022-10-18T12:11:03.875Z,17.30
2022-10-18T12:13:53.562Z,17.50
2022-10-18T12:16:51.383Z,17.60
2022-10-18T12:19:39.470Z,17.60
2022-10-18T12:22:29.944Z,17.60
2022-10-18T12:25:20.448Z,17.50
2022-10-18T12:28:14.474Z,17.40
2022-10-18T12:31:07.271Z,17.40
2022-10-18T12:34:00.374Z,17.40
2022-10-18T12:36:55.356Z,17.40
2022-10-18T12:40:08.647Z,17.50
2022-10-18T12:42:53.599Z,17.70
2022-10-18T12:45:49.772Z,17.80
2022-10-18T12:48:42.660Z,17.80
2022-10-18T12:51:33.014Z,17.90
2022-10-18T12:54:23.464Z,17.80
2022-10-18T12:57:23.866Z,18.00
2022-10-18T13:00:34.533Z,18.10
2022-10-18T13:03:41.065Z,18.20
2022-10-18T13:06:53.850Z,18.40
2022-10-18T13:09:42.949Z,18.40
2022-10-18T13:13:13.173Z,18.70
2022-10-18T13:16:08.134Z,18.50
2022-10-18T13:18:57.182Z,18.50
2022-10-18T13:21:50.032Z,18.50
2022-10-18T13:24:40.848Z,18.60
2022-10-18T13:27:42.673Z,18.70
2022-10-18T13:30:43.479Z,18.70
2022-10-18T13:33:32.608Z,18.80
2022-10-18T13:36:25.000Z,18.80
2022-10-18T13:39:20.315Z,18.80
2022-10-18T13:42:21.959Z,19.10
2022-10-18T13:45:28.211Z,19.00
2022-10-18T13:48:34.091Z,18.90
2022-10-18T13:51:34.603Z,16.90
2022-10-18T13:54:44.331Z,19.00
2022-10-18T13:57:46.852Z,19.10
2022-10-18T14:00:55.694Z,19.10
2022-10-18T14:04:01.923Z,19.20
2022-10-18T14:06:49.696Z,19.30
2022-10-18T14:09:45.259Z,19.40
2022-10-18T14:12:36.571Z,19.40
2022-10-18T14:15:25.717Z,19.40
2022-10-18T14:18:16.187Z,19.70
2022-10-18T14:21:14.608Z,19.30
2022-10-18T14:24:03.932Z,19.30
2022-10-18T14:27:06.356Z,19.30
2022-10-18T14:30:09.027Z,19.30
2022-10-18T14:32:59.711Z,19.30
2022-10-18T14:35:59.246Z,19.10
2022-10-18T14:38:48.749Z,19.20
2022-10-18T14:41:40.143Z,19.10
2022-10-18T14:44:29.220Z,19.10
2022-10-18T14:47:17.960Z,19.00
2022-10-18T14:50:21.497Z,19.00
2022-10-18T14:53:10.578Z,18.90
2022-10-18T14:56:00.816Z,19.00
2022-10-18T14:58:48.348Z,18.80
2022-10-18T15:01:36.627Z,18.80
2022-10-18T15:04:27.819Z,18.90
2022-10-18T15:07:18.645Z,18.80
2022-10-18T15:10:11.353Z,18.70
2022-10-18T15:13:09.634Z,19.10
2022-10-18T15:15:57.819Z,18.70
2022-10-18T15:18:59.390Z,18.70
2022-10-18T15:21:53.535Z,18.70
2022-10-18T15:24:47.233Z,18.70
2022-10-18T15:27:37.238Z,18.60
2022-10-18T15:30:27.574Z,18.60
2022-10-18T15:33:21.199Z,18.60
2022-10-18T15:36:12.591Z,18.50
2022-10-18T15:39:07.360Z,18.40
2022-10-18T15:41:57.281Z,18.40
2022-10-18T15:44:49.327Z,18.40
2022-10-18T15:47:37.349Z,18.30
2022-10-18T15:50:36.562Z,18.20
2022-10-18T15:53:42.173Z,18.20
2022-10-18T15:56:31.827Z,18.10
2022-10-18T15:59:24.860Z,18.10
2022-10-18T16:02:15.300Z,18.10
2022-10-18T16:05:03.753Z,17.90
2022-10-18T16:07:52.480Z,17.90
2022-10-18T16:10:43.356Z,17.90
2022-10-18T16:13:31.522Z,17.80
2022-10-18T16:16:22.088Z,17.70
2022-10-18T16:19:11.200Z,17.60
2022-10-18T16:22:02.298Z,17.50
2022-10-18T16:24:53.310Z,17.40
2022-10-18T16:27:41.151Z,17.30
2022-10-18T16:30:29.610Z,17.00
2022-10-18T16:33:21.480Z,16.80
2022-10-18T16:36:10.899Z,16.50
2022-10-18T16:39:00.881Z,16.30
2022-10-18T16:41:48.995Z,16.10
2022-10-18T16:44:36.642Z,15.90
2022-10-18T16:47:24.284Z,15.90
2022-10-18T16:50:16.761Z,16.10
2022-10-18T16:53:04.349Z,15.90
2022-10-18T16:55:52.999Z,16.00
2022-10-18T16:58:40.599Z,15.90
2022-10-18T17:01:28.078Z,15.70
2022-10-18T17:04:18.339Z,15.90
2022-10-18T17:07:07.304Z,15.70
2022-10-18T17:09:54.920Z,15.60
2022-10-18T17:12:42.191Z,15.60
2022-10-18T17:15:32.834Z,15.50
2022-10-18T17:18:23.733Z,15.50
2022-10-18T17:21:11.382Z,15.40
2022-10-18T17:24:03.331Z,15.40
2022-10-18T17:26:50.736Z,15.40
2022-10-18T17:29:37.900Z,15.60
2022-10-18T17:32:26.125Z,15.20
2022-10-18T17:35:13.979Z,15.10
2022-10-18T17:38:02.009Z,15.00
2022-10-18T17:40:53.569Z,14.90
2022-10-18T17:43:41.798Z,14.90
2022-10-18T17:46:29.562Z,14.90
2022-10-18T17:49:17.931Z,14.90
2022-10-18T17:52:07.091Z,14.90
2022-10-18T17:54:55.261Z,14.20
2022-10-18T17:57:44.742Z,14.80
2022-10-18T18:00:32.729Z,14.80
2022-10-18T18:03:20.054Z,14.90
2022-10-18T18:06:14.808Z,14.80
2022-10-18T18:09:04.884Z,14.70
2022-10-18T18:11:53.782Z,16.00
2022-10-18T18:14:42.521Z,14.70
2022-10-18T18:17:34.423Z,14.70
2022-10-18T18:20:27.295Z,14.70
2022-10-18T18:23:14.953Z,14.70
2022-10-18T18:26:03.063Z,14.60
2022-10-18T18:28:50.589Z,14.50
2022-10-18T18:31:43.427Z,14.50
2022-10-18T18:34:31.130Z,14.40
2022-10-18T18:37:18.344Z,14.40
2022-10-18T18:40:05.887Z,14.30
2022-10-18T18:43:07.327Z,14.30
2022-10-18T18:46:00.756Z,14.20
2022-10-18T18:48:50.082Z,14.20
2022-10-18T18:51:39.685Z,14.20
2022-10-18T18:54:28.770Z,14.10
2022-10-18T18:57:18.030Z,14.00
2022-10-18T19:00:06.163Z,13.90
2022-10-18T19:02:53.390Z,13.90
2022-10-18T19:05:42.349Z,13.80
2022-10-18T19:08:30.530Z,13.90
2022-10-18T19:11:19.709Z,13.80
2022-10-18T19:14:08.351Z,13.70
2022-10-18T19:16:59.270Z,13.70
2022-10-18T19:19:46.859Z,13.60
2022-10-18T19:22:39.982Z,13.60
2022-10-18T19:25:27.339Z,13.50
2022-10-18T19:28:15.283Z,13.50
2022-10-18T19:31:03.030Z,13.50
2022-10-18T19:33:59.611Z,13.40
2022-10-18T19:36:48.434Z,13.40
2022-10-18T19:39:38.010Z,13.40
2022-10-18T19:42:30.358Z,13.30
2022-10-18T19:45:19.008Z,13.30
2022-10-18T19:48:06.437Z,13.40
2022-10-18T19:50:54.303Z,13.40
2022-10-18T19:53:42.569Z,13.40
2022-10-18T19:56:32.024Z,13.40
2022-10-18T19:59:19.750Z,13.40
2022-10-18T20:02:13.802Z,13.50
2022-10-18T20:05:02.488Z,13.40
2022-10-18T20:07:49.849Z,13.20
2022-10-18T20:10:37.604Z,13.20
2022-10-18T20:13:26.818Z,13.10
2022-10-18T20:16:15.602Z,13.10
2022-10-18T20:19:04.084Z,13.00
2022-10-18T20:21:51.524Z,13.00
2022-10-18T20:24:39.288Z,12.90
2022-10-18T20:27:27.022Z,12.80
2022-10-18T20:30:15.684Z,12.70
2022-10-18T20:33:08.955Z,12.70
2022-10-18T20:35:56.664Z,12.60
2022-10-18T20:38:45.670Z,12.60
2022-10-18T20:41:34.775Z,12.50
2022-10-18T20:44:22.952Z,12.40
2022-10-18T20:47:11.983Z,12.20
2022-10-18T20:50:00.024Z,12.20
2022-10-18T20:52:51.257Z,12.80
2022-10-18T20:55:39.127Z,12.00
2022-10-18T20:58:26.891Z,11.90
2022-10-18T21:01:16.155Z,11.80
2022-10-18T21:04:06.067Z,11.80
2022-10-18T21:06:53.566Z,11.70
2022-10-18T21:09:41.126Z,11.70
2022-10-18T21:12:29.073Z,11.70
2022-10-18T21:15:16.444Z,11.60
2022-10-18T21:18:03.843Z,11.70
2022-10-18T21:20:52.816Z,11.70
2022-10-18T21:23:40.653Z,11.80
2022-10-18T21:26:28.784Z,11.60
2022-10-18T21:29:21.575Z,11.60
2022-10-18T21:32:09.351Z,11.60
2022-10-18T21:34:56.799Z,11.70
2022-10-18T21:37:46.209Z,11.70
2022-10-18T21:40:36.105Z,11.70
2022-10-18T21:43:24.031Z,11.80
2022-10-18T21:46:11.785Z,11.80
2022-10-18T21:48:59.324Z,11.60
2022-10-18T21:51:47.080Z,11.60
2022-10-18T21:54:36.580Z,11.40
2022-10-18T21:57:24.308Z,11.30
2022-10-18T22:00:13.215Z,12.10
2022-10-18T22:03:08.442Z,11.20
2022-10-18T22:06:01.284Z,11.10
2022-10-18T22:08:50.488Z,11.10
2022-10-18T22:11:42.277Z,11.00
2022-10-18T22:14:30.456Z,11.00
2022-10-18T22:17:18.122Z,10.90
2022-10-18T22:20:06.147Z,10.90
2022-10-18T22:22:55.760Z,10.80
2022-10-18T22:25:42.911Z,10.80
2022-10-18T22:28:32.475Z,10.30
2022-10-18T22:31:21.316Z,10.70
2022-10-18T22:34:11.418Z,11.40
2022-10-18T22:36:58.683Z,10.60
2022-10-18T22:39:46.606Z,10.70
2022-10-18T22:45:24.380Z,10.60
2022-10-18T22:48:11.531Z,10.50
2022-10-18T22:50:59.205Z,10.50
2022-10-18T22:53:47.317Z,10.50
2022-10-18T22:56:34.963Z,10.40
2022-10-18T22:59:26.270Z,10.30
2022-10-18T23:02:15.011Z,10.30
2022-10-18T23:05:02.665Z,10.30
2022-10-18T23:07:51.003Z,10.30
2022-10-18T23:10:39.625Z,10.40
2022-10-18T23:13:27.252Z,10.30
2022-10-18T23:16:15.466Z,10.40
2022-10-18T23:19:04.292Z,10.40
2022-10-18T23:21:52.154Z,10.50
2022-10-18T23:24:40.181Z,10.60
2022-10-18T23:27:27.730Z,10.30
2022-10-18T23:30:16.737Z,10.60
2022-10-18T23:33:06.464Z,10.50
2022-10-18T23:35:56.043Z,10.40
2022-10-18T23:38:43.514Z,10.40
2022-10-18T23:41:31.480Z,10.40
2022-10-18T23:44:19.121Z,10.60
2022-10-18T23:47:06.725Z,10.60
2022-10-18T23:49:56.533Z,10.70
2022-10-18T23:52:45.701Z,10.70
2022-10-18T23:55:33.054Z,10.70
2022-10-18T23:58:20.753Z,10.60
